This is the latest recevied weather packets stored in our database for station/object OK6FS-6. If no packets are shown the sender has not sent any weather packets the latest 10 day(s).
| Time | Temp. | Humidity | Pressure | Rain* | Wind** | Luminosity | Snow |
|---|---|---|---|---|---|---|---|
| 1777799199 | 23.33° C | 30% | 1022 hPa | - | - | - | - |
| 1777797773 | 23.33° C | 30% | 1022 hPa | - | - | - | - |
| 1777797031 | 22.78° C | 30% | 1022.1 hPa | - | - | - | - |
| 1777794882 | 23.33° C | 32% | 1022.2 hPa | - | - | - | - |
| 1777784063 | 9.44° C | 71% | 1022 hPa | - | - | - | - |
| 1777777584 | 8.33° C | 66% | 1021.7 hPa | - | - | - | - |
| 1777773990 | 8.33° C | 65% | 1021.4 hPa | - | - | - | - |
| 1777773277 | 8.33° C | 65% | 1021.6 hPa | - | - | - | - |
| 1777771119 | 8.89° C | 62% | 1021.5 hPa | - | - | - | - |
| 1777768981 | 8.89° C | 62% | 1021.5 hPa | - | - | - | - |
| 1777768228 | 8.89° C | 63% | 1021.5 hPa | - | - | - | - |
| 1777767535 | 9.44° C | 60% | 1021.5 hPa | - | - | - | - |
| 1777761754 | 11.11° C | 55% | 1021.8 hPa | - | - | - | - |
| 1777758154 | 12.78° C | 53% | 1021.8 hPa | - | - | - | - |
| 1777755264 | 14.44° C | 49% | 1022 hPa | - | - | - | - |
| 1777753838 | 15° C | 48% | 1022.1 hPa | - | - | - | - |
| 1777745189 | 22.78° C | 37% | 1021.6 hPa | - | - | - | - |
| 1777744477 | 23.33° C | 34% | 1021.6 hPa | - | - | - | - |
| 1777743051 | 23.89° C | 29% | 1021.7 hPa | - | - | - | - |
| 1777742339 | 23.89° C | 29% | 1021.7 hPa | - | - | - | - |
| 1777741586 | 24.44° C | 28% | 1021.8 hPa | - | - | - | - |
| 1777733671 | 25° C | 28% | 1023.1 hPa | - | - | - | - |
| 1777727914 | 25° C | 29% | 1024 hPa | - | - | - | - |
| 1777722874 | 23.89° C | 31% | 1025.2 hPa | - | - | - | - |
| 1777722151 | 24.44° C | 31% | 1025.4 hPa | - | - | - | - |
* Rain since midnight (hover to see other rain measurements)
** Current wind speed in m/s (hover to see current wind gust speed)